sensor_id;sensor_type;location;lat;lon;timestamp;temperature;humidity
12708;DHT22;6418;50.824;4.718;2023-03-01T00:02:15;-2.60;99.90
12708;DHT22;6418;50.824;4.718;2023-03-01T00:04:44;-2.60;99.90
12708;DHT22;6418;50.824;4.718;2023-03-01T00:07:11;-2.60;99.90
12708;DHT22;6418;50.824;4.718;2023-03-01T00:09:39;-2.70;99.90
12708;DHT22;6418;50.824;4.718;2023-03-01T00:12:07;-2.70;99.90
12708;DHT22;6418;50.824;4.718;2023-03-01T00:14:33;-2.70;99.90
12708;DHT22;6418;50.824;4.718;2023-03-01T00:17:00;-2.70;99.90
12708;DHT22;6418;50.824;4.718;2023-03-01T00:19:27;-2.70;99.90
12708;DHT22;6418;50.824;4.718;2023-03-01T00:21:54;-2.70;99.90
12708;DHT22;6418;50.824;4.718;2023-03-01T00:24:21;-2.80;99.90
12708;DHT22;6418;50.824;4.718;2023-03-01T00:26:52;-2.80;99.90
12708;DHT22;6418;50.824;4.718;2023-03-01T00:29:21;-1.20;99.90
12708;DHT22;6418;50.824;4.718;2023-03-01T00:31:47;-2.40;99.90
12708;DHT22;6418;50.824;4.718;2023-03-01T00:34:14;-2.90;99.90
12708;DHT22;6418;50.824;4.718;2023-03-01T00:36:41;-2.80;99.90
12708;DHT22;6418;50.824;4.718;2023-03-01T00:39:13;-2.90;99.90
12708;DHT22;6418;50.824;4.718;2023-03-01T00:41:40;-2.90;99.90
12708;DHT22;6418;50.824;4.718;2023-03-01T00:44:09;-2.30;99.90
12708;DHT22;6418;50.824;4.718;2023-03-01T00:46:36;-3.00;99.90
12708;DHT22;6418;50.824;4.718;2023-03-01T00:49:03;-2.20;99.90
12708;DHT22;6418;50.824;4.718;2023-03-01T00:51:33;-3.00;99.90
12708;DHT22;6418;50.824;4.718;2023-03-01T00:54:03;-3.10;99.90
12708;DHT22;6418;50.824;4.718;2023-03-01T00:56:33;-1.90;99.90
12708;DHT22;6418;50.824;4.718;2023-03-01T00:59:00;-3.10;99.90
12708;DHT22;6418;50.824;4.718;2023-03-01T01:01:30;-3.10;99.90
12708;DHT22;6418;50.824;4.718;2023-03-01T01:04:00;-2.80;99.90
12708;DHT22;6418;50.824;4.718;2023-03-01T01:06:28;-3.00;99.90
12708;DHT22;6418;50.824;4.718;2023-03-01T01:08:56;-3.20;99.90
12708;DHT22;6418;50.824;4.718;2023-03-01T01:11:25;-2.40;99.90
12708;DHT22;6418;50.824;4.718;2023-03-01T01:13:53;-3.20;99.90
12708;DHT22;6418;50.824;4.718;2023-03-01T01:16:21;-3.20;99.90
12708;DHT22;6418;50.824;4.718;2023-03-01T01:18:50;-3.20;99.90
12708;DHT22;6418;50.824;4.718;2023-03-01T01:21:20;-3.30;99.90
12708;DHT22;6418;50.824;4.718;2023-03-01T01:23:47;-3.30;99.90
12708;DHT22;6418;50.824;4.718;2023-03-01T01:26:15;-3.30;99.90
12708;DHT22;6418;50.824;4.718;2023-03-01T01:28:43;-3.30;99.90
12708;DHT22;6418;50.824;4.718;2023-03-01T01:31:10;-3.20;99.90
12708;DHT22;6418;50.824;4.718;2023-03-01T01:33:37;-1.80;99.90
12708;DHT22;6418;50.824;4.718;2023-03-01T01:36:07;-3.10;99.90
12708;DHT22;6418;50.824;4.718;2023-03-01T01:38:34;-3.10;99.90
12708;DHT22;6418;50.824;4.718;2023-03-01T01:41:01;-3.10;99.90
12708;DHT22;6418;50.824;4.718;2023-03-01T01:43:30;-3.10;99.90
12708;DHT22;6418;50.824;4.718;2023-03-01T01:45:58;-3.20;99.90
12708;DHT22;6418;50.824;4.718;2023-03-01T01:48:32;-3.20;99.90
12708;DHT22;6418;50.824;4.718;2023-03-01T01:51:09;-3.20;99.90
12708;DHT22;6418;50.824;4.718;2023-03-01T01:53:38;-3.30;99.90
12708;DHT22;6418;50.824;4.718;2023-03-01T01:56:08;-2.80;99.90
12708;DHT22;6418;50.824;4.718;2023-03-01T01:58:36;-3.30;99.90
12708;DHT22;6418;50.824;4.718;2023-03-01T02:01:04;-3.40;99.90
12708;DHT22;6418;50.824;4.718;2023-03-01T02:03:32;-3.30;99.90
12708;DHT22;6418;50.824;4.718;2023-03-01T02:06:07;-3.30;99.90
12708;DHT22;6418;50.824;4.718;2023-03-01T02:08:40;-3.30;99.90
12708;DHT22;6418;50.824;4.718;2023-03-01T02:11:09;-3.40;99.90
12708;DHT22;6418;50.824;4.718;2023-03-01T02:13:37;-3.30;99.90
12708;DHT22;6418;50.824;4.718;2023-03-01T02:16:05;-3.40;99.90
12708;DHT22;6418;50.824;4.718;2023-03-01T02:18:34;-3.40;99.90
12708;DHT22;6418;50.824;4.718;2023-03-01T02:21:11;-3.40;99.90
12708;DHT22;6418;50.824;4.718;2023-03-01T02:23:42;-3.40;99.90
12708;DHT22;6418;50.824;4.718;2023-03-01T02:26:20;-3.50;99.90
12708;DHT22;6418;50.824;4.718;2023-03-01T02:28:51;-2.40;99.90
12708;DHT22;6418;50.824;4.718;2023-03-01T02:31:19;-3.50;99.90
12708;DHT22;6418;50.824;4.718;2023-03-01T02:34:05;-3.50;99.90
12708;DHT22;6418;50.824;4.718;2023-03-01T02:36:36;-3.60;99.90
12708;DHT22;6418;50.824;4.718;2023-03-01T02:39:06;-3.60;99.90
12708;DHT22;6418;50.824;4.718;2023-03-01T02:41:36;-3.60;99.90
12708;DHT22;6418;50.824;4.718;2023-03-01T02:44:05;-3.60;99.90
12708;DHT22;6418;50.824;4.718;2023-03-01T02:46:33;-3.30;99.90
12708;DHT22;6418;50.824;4.718;2023-03-01T02:49:01;-2.70;99.90
12708;DHT22;6418;50.824;4.718;2023-03-01T02:51:42;-3.70;99.90
12708;DHT22;6418;50.824;4.718;2023-03-01T02:54:17;-2.30;99.90
12708;DHT22;6418;50.824;4.718;2023-03-01T02:56:47;-2.20;99.90
12708;DHT22;6418;50.824;4.718;2023-03-01T02:59:19;-3.70;99.90
12708;DHT22;6418;50.824;4.718;2023-03-01T03:01:47;-3.80;99.90
12708;DHT22;6418;50.824;4.718;2023-03-01T03:04:15;-3.80;99.90
12708;DHT22;6418;50.824;4.718;2023-03-01T03:06:43;-2.60;99.90
12708;DHT22;6418;50.824;4.718;2023-03-01T03:09:11;-3.80;99.90
12708;DHT22;6418;50.824;4.718;2023-03-01T03:11:39;-3.90;99.90
12708;DHT22;6418;50.824;4.718;2023-03-01T03:14:07;-3.90;99.90
12708;DHT22;6418;50.824;4.718;2023-03-01T03:16:40;-3.90;99.90
12708;DHT22;6418;50.824;4.718;2023-03-01T03:19:07;-2.70;99.90
12708;DHT22;6418;50.824;4.718;2023-03-01T03:21:34;-2.60;99.90
12708;DHT22;6418;50.824;4.718;2023-03-01T03:24:01;-4.00;99.90
12708;DHT22;6418;50.824;4.718;2023-03-01T03:26:29;-4.00;99.90
12708;DHT22;6418;50.824;4.718;2023-03-01T03:28:56;-4.10;99.90
12708;DHT22;6418;50.824;4.718;2023-03-01T03:31:23;-4.10;99.90
12708;DHT22;6418;50.824;4.718;2023-03-01T03:33:51;-4.10;99.90
12708;DHT22;6418;50.824;4.718;2023-03-01T03:36:21;-3.30;99.90
12708;DHT22;6418;50.824;4.718;2023-03-01T03:38:48;-4.00;99.90
12708;DHT22;6418;50.824;4.718;2023-03-01T03:41:15;-4.00;99.90
12708;DHT22;6418;50.824;4.718;2023-03-01T03:43:42;-3.90;99.90
12708;DHT22;6418;50.824;4.718;2023-03-01T03:46:11;-3.80;99.90
12708;DHT22;6418;50.824;4.718;2023-03-01T03:48:40;-3.70;99.90
12708;DHT22;6418;50.824;4.718;2023-03-01T03:51:11;-3.70;99.90
12708;DHT22;6418;50.824;4.718;2023-03-01T03:53:39;-3.70;99.90
12708;DHT22;6418;50.824;4.718;2023-03-01T03:56:06;-3.70;99.90
12708;DHT22;6418;50.824;4.718;2023-03-01T03:58:33;-3.50;99.90
12708;DHT22;6418;50.824;4.718;2023-03-01T04:01:00;-3.50;99.90
12708;DHT22;6418;50.824;4.718;2023-03-01T04:03:28;-2.70;99.90
12708;DHT22;6418;50.824;4.718;2023-03-01T04:05:57;-3.30;99.90
12708;DHT22;6418;50.824;4.718;2023-03-01T04:08:26;-3.30;99.90
12708;DHT22;6418;50.824;4.718;2023-03-01T04:10:57;-3.20;99.90
12708;DHT22;6418;50.824;4.718;2023-03-01T04:13:24;-3.20;99.90
12708;DHT22;6418;50.824;4.718;2023-03-01T04:15:52;-3.20;99.90
12708;DHT22;6418;50.824;4.718;2023-03-01T04:18:21;-3.20;99.90
12708;DHT22;6418;50.824;4.718;2023-03-01T04:20:48;-3.20;99.90
12708;DHT22;6418;50.824;4.718;2023-03-01T04:23:18;-3.30;99.90
12708;DHT22;6418;50.824;4.718;2023-03-01T04:25:49;-3.30;99.90
12708;DHT22;6418;50.824;4.718;2023-03-01T04:28:19;-3.40;99.90
12708;DHT22;6418;50.824;4.718;2023-03-01T04:30:46;-3.40;99.90
12708;DHT22;6418;50.824;4.718;2023-03-01T04:33:13;-3.50;99.90
12708;DHT22;6418;50.824;4.718;2023-03-01T04:35:40;-3.50;99.90
12708;DHT22;6418;50.824;4.718;2023-03-01T04:38:07;-3.60;99.90
12708;DHT22;6418;50.824;4.718;2023-03-01T04:40:35;-3.50;99.90
12708;DHT22;6418;50.824;4.718;2023-03-01T04:43:04;-3.50;99.90
12708;DHT22;6418;50.824;4.718;2023-03-01T04:45:32;-3.60;99.90
12708;DHT22;6418;50.824;4.718;2023-03-01T04:48:01;-3.60;99.90
12708;DHT22;6418;50.824;4.718;2023-03-01T04:50:28;-3.60;99.90
12708;DHT22;6418;50.824;4.718;2023-03-01T04:52:55;-3.60;99.90
12708;DHT22;6418;50.824;4.718;2023-03-01T04:55:24;-3.00;99.90
12708;DHT22;6418;50.824;4.718;2023-03-01T04:57:52;-3.70;99.90
12708;DHT22;6418;50.824;4.718;2023-03-01T05:00:21;-3.70;99.90
12708;DHT22;6418;50.824;4.718;2023-03-01T05:02:50;-3.80;99.90
12708;DHT22;6418;50.824;4.718;2023-03-01T05:05:29;-3.80;99.90
12708;DHT22;6418;50.824;4.718;2023-03-01T05:07:58;-3.80;99.90
12708;DHT22;6418;50.824;4.718;2023-03-01T05:10:26;-3.90;99.90
12708;DHT22;6418;50.824;4.718;2023-03-01T05:12:54;-3.90;99.90
12708;DHT22;6418;50.824;4.718;2023-03-01T05:15:24;-4.00;99.90
12708;DHT22;6418;50.824;4.718;2023-03-01T05:17:52;-4.00;99.90
12708;DHT22;6418;50.824;4.718;2023-03-01T05:20:19;-4.10;99.90
12708;DHT22;6418;50.824;4.718;2023-03-01T05:22:49;-4.10;99.90
12708;DHT22;6418;50.824;4.718;2023-03-01T05:25:16;-4.10;99.90
12708;DHT22;6418;50.824;4.718;2023-03-01T05:27:43;-4.00;99.90
12708;DHT22;6418;50.824;4.718;2023-03-01T05:30:11;-4.00;99.90
12708;DHT22;6418;50.824;4.718;2023-03-01T05:32:44;-3.90;99.90
12708;DHT22;6418;50.824;4.718;2023-03-01T05:35:12;-3.90;99.90
12708;DHT22;6418;50.824;4.718;2023-03-01T05:37:43;-3.80;99.90
12708;DHT22;6418;50.824;4.718;2023-03-01T05:40:12;-3.70;99.90
12708;DHT22;6418;50.824;4.718;2023-03-01T05:42:42;-3.70;99.90
12708;DHT22;6418;50.824;4.718;2023-03-01T05:45:10;-3.70;99.90
12708;DHT22;6418;50.824;4.718;2023-03-01T05:47:38;-3.60;99.90
12708;DHT22;6418;50.824;4.718;2023-03-01T05:50:11;-3.60;99.90
12708;DHT22;6418;50.824;4.718;2023-03-01T05:52:39;-3.50;99.90
12708;DHT22;6418;50.824;4.718;2023-03-01T05:55:07;-3.50;99.90
12708;DHT22;6418;50.824;4.718;2023-03-01T05:57:34;-3.50;99.90
12708;DHT22;6418;50.824;4.718;2023-03-01T06:00:01;-3.50;99.90
12708;DHT22;6418;50.824;4.718;2023-03-01T06:02:28;-3.50;99.90
12708;DHT22;6418;50.824;4.718;2023-03-01T06:04:55;-3.50;99.90
12708;DHT22;6418;50.824;4.718;2023-03-01T06:07:24;-3.60;99.90
12708;DHT22;6418;50.824;4.718;2023-03-01T06:09:51;-3.60;99.90
12708;DHT22;6418;50.824;4.718;2023-03-01T06:12:18;-3.60;99.90
12708;DHT22;6418;50.824;4.718;2023-03-01T06:14:45;-3.60;99.90
12708;DHT22;6418;50.824;4.718;2023-03-01T06:17:12;-3.70;99.90
12708;DHT22;6418;50.824;4.718;2023-03-01T06:19:39;-3.70;99.90
12708;DHT22;6418;50.824;4.718;2023-03-01T06:22:06;-3.80;99.90
12708;DHT22;6418;50.824;4.718;2023-03-01T06:24:35;-3.20;99.90
12708;DHT22;6418;50.824;4.718;2023-03-01T06:27:02;-3.80;99.90
12708;DHT22;6418;50.824;4.718;2023-03-01T06:29:29;-3.80;99.90
12708;DHT22;6418;50.824;4.718;2023-03-01T06:31:56;-3.80;99.90
12708;DHT22;6418;50.824;4.718;2023-03-01T06:34:23;-3.90;99.90
12708;DHT22;6418;50.824;4.718;2023-03-01T06:36:50;-3.80;99.90
12708;DHT22;6418;50.824;4.718;2023-03-01T06:39:16;-3.90;99.90
12708;DHT22;6418;50.824;4.718;2023-03-01T06:41:45;-3.90;99.90
12708;DHT22;6418;50.824;4.718;2023-03-01T06:44:12;-4.00;99.90
12708;DHT22;6418;50.824;4.718;2023-03-01T06:46:39;-4.00;99.90
12708;DHT22;6418;50.824;4.718;2023-03-01T06:49:06;-4.00;99.90
12708;DHT22;6418;50.824;4.718;2023-03-01T06:51:35;-4.00;99.90
12708;DHT22;6418;50.824;4.718;2023-03-01T06:54:03;-4.00;99.90
12708;DHT22;6418;50.824;4.718;2023-03-01T06:56:30;-3.60;99.90
12708;DHT22;6418;50.824;4.718;2023-03-01T06:58:59;-4.10;99.90
12708;DHT22;6418;50.824;4.718;2023-03-01T07:01:26;-3.10;99.90
12708;DHT22;6418;50.824;4.718;2023-03-01T07:03:53;-4.00;99.90
12708;DHT22;6418;50.824;4.718;2023-03-01T07:06:20;-2.70;99.90
12708;DHT22;6418;50.824;4.718;2023-03-01T07:08:47;-3.80;99.90
12708;DHT22;6418;50.824;4.718;2023-03-01T07:11:14;-3.70;99.90
12708;DHT22;6418;50.824;4.718;2023-03-01T07:13:41;-3.70;99.90
12708;DHT22;6418;50.824;4.718;2023-03-01T07:16:09;-3.60;99.90
12708;DHT22;6418;50.824;4.718;2023-03-01T07:18:36;-3.50;99.90
12708;DHT22;6418;50.824;4.718;2023-03-01T07:21:06;-3.50;99.90
12708;DHT22;6418;50.824;4.718;2023-03-01T07:23:34;-3.40;99.90
12708;DHT22;6418;50.824;4.718;2023-03-01T07:26:01;-3.40;99.90
12708;DHT22;6418;50.824;4.718;2023-03-01T07:28:28;-3.40;99.90
12708;DHT22;6418;50.824;4.718;2023-03-01T07:37:01;-3.20;99.90
12708;DHT22;6418;50.824;4.718;2023-03-01T07:39:32;-2.50;99.90
12708;DHT22;6418;50.824;4.718;2023-03-01T07:42:03;-3.10;99.90
12708;DHT22;6418;50.824;4.718;2023-03-01T07:44:32;-3.00;99.90
12708;DHT22;6418;50.824;4.718;2023-03-01T07:47:00;-3.00;99.90
12708;DHT22;6418;50.824;4.718;2023-03-01T07:49:26;-3.00;99.90
12708;DHT22;6418;50.824;4.718;2023-03-01T07:51:53;-3.00;99.90
12708;DHT22;6418;50.824;4.718;2023-03-01T07:54:22;-2.90;99.90
12708;DHT22;6418;50.824;4.718;2023-03-01T07:56:49;-2.90;99.90
12708;DHT22;6418;50.824;4.718;2023-03-01T08:02:38;-2.70;99.90
12708;DHT22;6418;50.824;4.718;2023-03-01T08:05:08;-2.60;99.90
12708;DHT22;6418;50.824;4.718;2023-03-01T08:07:36;-2.60;99.90
12708;DHT22;6418;50.824;4.718;2023-03-01T08:10:10;-2.50;99.90
12708;DHT22;6418;50.824;4.718;2023-03-01T08:16:19;-2.30;99.90
12708;DHT22;6418;50.824;4.718;2023-03-01T08:18:47;-2.20;99.90
12708;DHT22;6418;50.824;4.718;2023-03-01T08:21:16;-2.00;99.90
12708;DHT22;6418;50.824;4.718;2023-03-01T08:23:46;-2.00;99.90
12708;DHT22;6418;50.824;4.718;2023-03-01T08:26:20;-1.90;99.90
12708;DHT22;6418;50.824;4.718;2023-03-01T08:28:50;-1.80;99.90
12708;DHT22;6418;50.824;4.718;2023-03-01T08:31:20;-1.80;99.90
12708;DHT22;6418;50.824;4.718;2023-03-01T08:33:51;-1.60;99.90
12708;DHT22;6418;50.824;4.718;2023-03-01T08:36:21;-1.60;99.90
12708;DHT22;6418;50.824;4.718;2023-03-01T08:38:57;-1.60;99.90
12708;DHT22;6418;50.824;4.718;2023-03-01T08:41:31;-1.50;99.90
12708;DHT22;6418;50.824;4.718;2023-03-01T08:43:58;-0.30;99.90
12708;DHT22;6418;50.824;4.718;2023-03-01T08:46:26;-1.40;99.90
12708;DHT22;6418;50.824;4.718;2023-03-01T08:48:53;0.10;99.90
12708;DHT22;6418;50.824;4.718;2023-03-01T08:51:21;0.20;99.90
12708;DHT22;6418;50.824;4.718;2023-03-01T08:53:48;-1.30;99.90
12708;DHT22;6418;50.824;4.718;2023-03-01T08:56:16;-1.30;99.90
12708;DHT22;6418;50.824;4.718;2023-03-01T08:58:46;-1.30;99.90
12708;DHT22;6418;50.824;4.718;2023-03-01T09:01:14;-1.10;99.90
12708;DHT22;6418;50.824;4.718;2023-03-01T09:03:42;-1.00;99.90
12708;DHT22;6418;50.824;4.718;2023-03-01T09:06:10;-1.10;99.90
12708;DHT22;6418;50.824;4.718;2023-03-01T09:08:38;-1.00;99.90
12708;DHT22;6418;50.824;4.718;2023-03-01T09:11:07;-1.00;99.90
12708;DHT22;6418;50.824;4.718;2023-03-01T09:13:34;0.20;99.90
12708;DHT22;6418;50.824;4.718;2023-03-01T09:16:04;-0.20;99.90
12708;DHT22;6418;50.824;4.718;2023-03-01T09:18:36;-0.80;99.90
12708;DHT22;6418;50.824;4.718;2023-03-01T09:21:05;-0.60;99.90
12708;DHT22;6418;50.824;4.718;2023-03-01T09:23:33;-0.60;99.90
12708;DHT22;6418;50.824;4.718;2023-03-01T09:25:59;-0.60;99.90
12708;DHT22;6418;50.824;4.718;2023-03-01T09:28:26;-0.50;99.90
12708;DHT22;6418;50.824;4.718;2023-03-01T09:30:53;-0.50;99.90
12708;DHT22;6418;50.824;4.718;2023-03-01T09:33:25;-0.20;99.90
12708;DHT22;6418;50.824;4.718;2023-03-01T09:35:56;-0.30;99.90
12708;DHT22;6418;50.824;4.718;2023-03-01T09:38:23;0.00;99.90
12708;DHT22;6418;50.824;4.718;2023-03-01T09:40:50;-0.30;99.90
12708;DHT22;6418;50.824;4.718;2023-03-01T09:43:21;-0.20;99.90
12708;DHT22;6418;50.824;4.718;2023-03-01T09:45:50;-0.20;99.90
12708;DHT22;6418;50.824;4.718;2023-03-01T09:48:21;0.60;99.90
12708;DHT22;6418;50.824;4.718;2023-03-01T09:50:51;0.00;99.90
12708;DHT22;6418;50.824;4.718;2023-03-01T09:53:20;0.30;99.90
12708;DHT22;6418;50.824;4.718;2023-03-01T09:55:52;0.20;99.90
12708;DHT22;6418;50.824;4.718;2023-03-01T09:58:34;0.90;99.90
12708;DHT22;6418;50.824;4.718;2023-03-01T10:01:15;0.30;99.90
12708;DHT22;6418;50.824;4.718;2023-03-01T10:04:00;0.40;99.90
12708;DHT22;6418;50.824;4.718;2023-03-01T10:06:29;0.40;99.90
12708;DHT22;6418;50.824;4.718;2023-03-01T10:08:57;0.50;99.90
12708;DHT22;6418;50.824;4.718;2023-03-01T10:11:30;0.60;99.90
12708;DHT22;6418;50.824;4.718;2023-03-01T10:14:01;0.70;99.90
12708;DHT22;6418;50.824;4.718;2023-03-01T10:16:40;0.70;99.90
12708;DHT22;6418;50.824;4.718;2023-03-01T10:19:14;1.60;99.90
12708;DHT22;6418;50.824;4.718;2023-03-01T10:21:45;0.90;99.90
12708;DHT22;6418;50.824;4.718;2023-03-01T10:24:15;1.00;99.90
12708;DHT22;6418;50.824;4.718;2023-03-01T10:26:48;1.20;99.90
12708;DHT22;6418;50.824;4.718;2023-03-01T10:29:24;1.00;99.90
12708;DHT22;6418;50.824;4.718;2023-03-01T10:31:53;1.10;99.90
12708;DHT22;6418;50.824;4.718;2023-03-01T10:34:22;1.20;99.90
12708;DHT22;6418;50.824;4.718;2023-03-01T10:36:58;1.30;99.90
12708;DHT22;6418;50.824;4.718;2023-03-01T10:39:28;1.30;99.90
12708;DHT22;6418;50.824;4.718;2023-03-01T10:41:57;1.50;99.90
12708;DHT22;6418;50.824;4.718;2023-03-01T10:44:43;2.60;99.90
12708;DHT22;6418;50.824;4.718;2023-03-01T10:47:16;1.50;99.90
12708;DHT22;6418;50.824;4.718;2023-03-01T10:50:00;1.60;99.90
12708;DHT22;6418;50.824;4.718;2023-03-01T10:52:32;1.70;99.90
12708;DHT22;6418;50.824;4.718;2023-03-01T10:55:02;1.70;99.90
12708;DHT22;6418;50.824;4.718;2023-03-01T10:57:37;2.00;99.90
12708;DHT22;6418;50.824;4.718;2023-03-01T11:00:28;1.90;99.90
12708;DHT22;6418;50.824;4.718;2023-03-01T11:03:11;2.10;99.90
12708;DHT22;6418;50.824;4.718;2023-03-01T11:05:57;2.10;99.90
12708;DHT22;6418;50.824;4.718;2023-03-01T11:08:47;2.10;99.90
12708;DHT22;6418;50.824;4.718;2023-03-01T11:11:23;2.10;99.90
12708;DHT22;6418;50.824;4.718;2023-03-01T11:13:56;2.10;99.90
12708;DHT22;6418;50.824;4.718;2023-03-01T11:16:29;2.10;99.90
12708;DHT22;6418;50.824;4.718;2023-03-01T11:19:13;2.20;99.90
12708;DHT22;6418;50.824;4.718;2023-03-01T11:21:44;2.20;99.90
12708;DHT22;6418;50.824;4.718;2023-03-01T11:24:16;2.30;99.90
12708;DHT22;6418;50.824;4.718;2023-03-01T11:26:47;2.30;99.90
12708;DHT22;6418;50.824;4.718;2023-03-01T11:29:26;2.40;99.90
12708;DHT22;6418;50.824;4.718;2023-03-01T11:31:56;2.40;99.90
12708;DHT22;6418;50.824;4.718;2023-03-01T11:34:38;2.40;99.90
12708;DHT22;6418;50.824;4.718;2023-03-01T11:37:14;2.70;99.90
12708;DHT22;6418;50.824;4.718;2023-03-01T11:39:49;2.70;99.90
12708;DHT22;6418;50.824;4.718;2023-03-01T11:42:19;2.70;99.90
12708;DHT22;6418;50.824;4.718;2023-03-01T11:44:49;2.90;99.90
12708;DHT22;6418;50.824;4.718;2023-03-01T11:47:32;3.50;99.90
12708;DHT22;6418;50.824;4.718;2023-03-01T11:50:16;2.90;99.90
12708;DHT22;6418;50.824;4.718;2023-03-01T11:52:57;2.90;99.90
12708;DHT22;6418;50.824;4.718;2023-03-01T11:55:36;2.80;99.90
12708;DHT22;6418;50.824;4.718;2023-03-01T11:58:34;3.00;99.90
12708;DHT22;6418;50.824;4.718;2023-03-01T12:01:25;3.10;99.90
12708;DHT22;6418;50.824;4.718;2023-03-01T12:04:24;3.10;99.90
12708;DHT22;6418;50.824;4.718;2023-03-01T12:06:57;3.10;99.90
12708;DHT22;6418;50.824;4.718;2023-03-01T12:09:38;3.20;99.90
12708;DHT22;6418;50.824;4.718;2023-03-01T12:12:40;3.20;99.90
12708;DHT22;6418;50.824;4.718;2023-03-01T12:15:33;3.20;99.90
12708;DHT22;6418;50.824;4.718;2023-03-01T12:18:35;3.20;99.90
12708;DHT22;6418;50.824;4.718;2023-03-01T12:21:16;3.20;99.90
12708;DHT22;6418;50.824;4.718;2023-03-01T12:24:08;3.30;99.90
12708;DHT22;6418;50.824;4.718;2023-03-01T12:26:44;3.30;99.90
12708;DHT22;6418;50.824;4.718;2023-03-01T12:29:26;3.50;99.90
12708;DHT22;6418;50.824;4.718;2023-03-01T12:32:15;3.30;99.90
12708;DHT22;6418;50.824;4.718;2023-03-01T12:35:00;3.50;99.90
12708;DHT22;6418;50.824;4.718;2023-03-01T12:37:38;3.50;99.90
12708;DHT22;6418;50.824;4.718;2023-03-01T12:40:30;3.70;99.90
12708;DHT22;6418;50.824;4.718;2023-03-01T12:43:11;3.70;99.90
12708;DHT22;6418;50.824;4.718;2023-03-01T12:45:50;3.70;99.90
12708;DHT22;6418;50.824;4.718;2023-03-01T12:48:38;3.70;99.90
12708;DHT22;6418;50.824;4.718;2023-03-01T12:51:10;3.70;99.90
12708;DHT22;6418;50.824;4.718;2023-03-01T12:53:40;3.80;99.90
12708;DHT22;6418;50.824;4.718;2023-03-01T12:56:10;4.00;99.90
12708;DHT22;6418;50.824;4.718;2023-03-01T12:58:42;3.90;99.90
12708;DHT22;6418;50.824;4.718;2023-03-01T13:01:22;3.90;99.90
12708;DHT22;6418;50.824;4.718;2023-03-01T13:04:15;4.00;99.90
12708;DHT22;6418;50.824;4.718;2023-03-01T13:06:50;4.00;99.90
12708;DHT22;6418;50.824;4.718;2023-03-01T13:09:26;4.00;99.90
12708;DHT22;6418;50.824;4.718;2023-03-01T13:11:55;4.00;99.90
12708;DHT22;6418;50.824;4.718;2023-03-01T13:14:44;4.00;99.90
12708;DHT22;6418;50.824;4.718;2023-03-01T13:17:33;4.00;99.90
12708;DHT22;6418;50.824;4.718;2023-03-01T13:20:13;4.00;99.90
12708;DHT22;6418;50.824;4.718;2023-03-01T13:22:41;4.00;99.90
12708;DHT22;6418;50.824;4.718;2023-03-01T13:25:17;4.10;99.90
12708;DHT22;6418;50.824;4.718;2023-03-01T13:27:45;4.20;99.90
12708;DHT22;6418;50.824;4.718;2023-03-01T13:30:42;4.20;99.90
12708;DHT22;6418;50.824;4.718;2023-03-01T13:33:40;4.30;99.90
12708;DHT22;6418;50.824;4.718;2023-03-01T13:36:08;4.30;99.90
12708;DHT22;6418;50.824;4.718;2023-03-01T13:38:45;4.30;99.90
12708;DHT22;6418;50.824;4.718;2023-03-01T13:41:14;4.60;99.90
12708;DHT22;6418;50.824;4.718;2023-03-01T13:43:42;4.40;99.90
12708;DHT22;6418;50.824;4.718;2023-03-01T13:46:14;4.40;99.90
12708;DHT22;6418;50.824;4.718;2023-03-01T13:48:45;5.30;99.90
12708;DHT22;6418;50.824;4.718;2023-03-01T13:51:14;4.90;99.90
12708;DHT22;6418;50.824;4.718;2023-03-01T13:53:44;4.60;99.90
12708;DHT22;6418;50.824;4.718;2023-03-01T13:56:13;6.00;99.90
12708;DHT22;6418;50.824;4.718;2023-03-01T13:58:53;4.80;99.90
12708;DHT22;6418;50.824;4.718;2023-03-01T14:01:24;4.70;99.90
12708;DHT22;6418;50.824;4.718;2023-03-01T14:03:53;4.70;99.90
12708;DHT22;6418;50.824;4.718;2023-03-01T14:06:22;4.80;99.90
12708;DHT22;6418;50.824;4.718;2023-03-01T14:08:51;4.90;99.90
12708;DHT22;6418;50.824;4.718;2023-03-01T14:17:39;5.10;99.90
12708;DHT22;6418;50.824;4.718;2023-03-01T14:20:18;5.10;99.90
12708;DHT22;6418;50.824;4.718;2023-03-01T14:22:46;5.20;99.90
12708;DHT22;6418;50.824;4.718;2023-03-01T14:25:23;5.10;99.90
12708;DHT22;6418;50.824;4.718;2023-03-01T14:27:55;5.10;99.90
12708;DHT22;6418;50.824;4.718;2023-03-01T14:30:24;5.10;99.90
12708;DHT22;6418;50.824;4.718;2023-03-01T14:32:53;5.10;99.90
12708;DHT22;6418;50.824;4.718;2023-03-01T14:35:24;5.10;99.90
12708;DHT22;6418;50.824;4.718;2023-03-01T14:37:51;5.20;99.90
12708;DHT22;6418;50.824;4.718;2023-03-01T14:40:24;5.30;99.90
12708;DHT22;6418;50.824;4.718;2023-03-01T14:42:52;6.60;99.90
12708;DHT22;6418;50.824;4.718;2023-03-01T14:45:20;5.20;99.90
12708;DHT22;6418;50.824;4.718;2023-03-01T14:47:47;5.30;99.90
12708;DHT22;6418;50.824;4.718;2023-03-01T14:50:24;5.30;99.90
12708;DHT22;6418;50.824;4.718;2023-03-01T14:52:54;5.20;99.90
12708;DHT22;6418;50.824;4.718;2023-03-01T14:55:25;5.20;99.90
12708;DHT22;6418;50.824;4.718;2023-03-01T14:57:53;5.30;99.90
12708;DHT22;6418;50.824;4.718;2023-03-01T15:08:31;5.30;99.90
12708;DHT22;6418;50.824;4.718;2023-03-01T15:11:02;5.30;99.90
12708;DHT22;6418;50.824;4.718;2023-03-01T15:13:31;5.30;99.90
12708;DHT22;6418;50.824;4.718;2023-03-01T15:16:07;5.40;99.90
12708;DHT22;6418;50.824;4.718;2023-03-01T15:18:36;5.40;99.90
12708;DHT22;6418;50.824;4.718;2023-03-01T15:21:08;5.40;99.90
12708;DHT22;6418;50.824;4.718;2023-03-01T15:23:38;5.40;99.90
12708;DHT22;6418;50.824;4.718;2023-03-01T15:26:06;5.40;99.90
12708;DHT22;6418;50.824;4.718;2023-03-01T15:28:34;5.40;99.90
12708;DHT22;6418;50.824;4.718;2023-03-01T15:31:07;5.50;99.90
12708;DHT22;6418;50.824;4.718;2023-03-01T15:33:40;5.40;99.90
12708;DHT22;6418;50.824;4.718;2023-03-01T15:36:33;5.40;99.90
12708;DHT22;6418;50.824;4.718;2023-03-01T15:39:05;5.50;99.90
12708;DHT22;6418;50.824;4.718;2023-03-01T15:41:37;5.40;99.90
12708;DHT22;6418;50.824;4.718;2023-03-01T15:44:15;6.70;99.90
12708;DHT22;6418;50.824;4.718;2023-03-01T15:46:46;5.40;99.90
12708;DHT22;6418;50.824;4.718;2023-03-01T15:49:34;5.50;99.90
12708;DHT22;6418;50.824;4.718;2023-03-01T15:52:03;5.40;99.90
12708;DHT22;6418;50.824;4.718;2023-03-01T15:54:31;5.40;99.90
12708;DHT22;6418;50.824;4.718;2023-03-01T15:56:58;5.40;99.90
12708;DHT22;6418;50.824;4.718;2023-03-01T15:59:25;5.40;99.90
12708;DHT22;6418;50.824;4.718;2023-03-01T16:01:52;5.40;99.90
12708;DHT22;6418;50.824;4.718;2023-03-01T16:04:19;5.40;99.90
12708;DHT22;6418;50.824;4.718;2023-03-01T16:06:49;5.40;99.90
12708;DHT22;6418;50.824;4.718;2023-03-01T16:09:20;5.40;99.90
12708;DHT22;6418;50.824;4.718;2023-03-01T16:11:50;5.30;99.90
12708;DHT22;6418;50.824;4.718;2023-03-01T16:14:17;5.40;99.90
12708;DHT22;6418;50.824;4.718;2023-03-01T16:16:44;5.30;99.90
12708;DHT22;6418;50.824;4.718;2023-03-01T16:19:11;5.30;99.90
12708;DHT22;6418;50.824;4.718;2023-03-01T16:21:39;5.30;99.90
12708;DHT22;6418;50.824;4.718;2023-03-01T16:24:06;5.30;99.90
12708;DHT22;6418;50.824;4.718;2023-03-01T16:26:33;5.20;99.90
12708;DHT22;6418;50.824;4.718;2023-03-01T16:29:02;5.20;99.90
12708;DHT22;6418;50.824;4.718;2023-03-01T16:31:29;5.20;99.90
12708;DHT22;6418;50.824;4.718;2023-03-01T16:33:57;5.20;99.90
12708;DHT22;6418;50.824;4.718;2023-03-01T16:36:26;5.20;99.90
12708;DHT22;6418;50.824;4.718;2023-03-01T16:38:53;5.20;99.90
12708;DHT22;6418;50.824;4.718;2023-03-01T16:41:22;5.20;99.90
12708;DHT22;6418;50.824;4.718;2023-03-01T16:43:50;5.30;99.90
12708;DHT22;6418;50.824;4.718;2023-03-01T16:46:21;5.20;99.90